sensor_id;sensor_type;location;lat;lon;timestamp;temperature;humidity
42835;DHT22;29335;50.526;30.458;2022-07-06T00:02:03;25.10;75.80
42835;DHT22;29335;50.526;30.458;2022-07-06T00:04:29;25.10;75.90
42835;DHT22;29335;50.526;30.458;2022-07-06T00:06:54;25.10;75.90
42835;DHT22;29335;50.526;30.458;2022-07-06T00:09:20;25.10;76.10
42835;DHT22;29335;50.526;30.458;2022-07-06T00:11:46;25.10;76.20
42835;DHT22;29335;50.526;30.458;2022-07-06T00:14:11;25.10;76.30
42835;DHT22;29335;50.526;30.458;2022-07-06T00:16:37;25.10;76.50
42835;DHT22;29335;50.526;30.458;2022-07-06T00:19:03;25.00;76.50
42835;DHT22;29335;50.526;30.458;2022-07-06T00:21:28;25.00;76.70
42835;DHT22;29335;50.526;30.458;2022-07-06T00:23:54;25.10;76.90
42835;DHT22;29335;50.526;30.458;2022-07-06T00:26:20;25.00;76.90
42835;DHT22;29335;50.526;30.458;2022-07-06T00:28:45;25.00;77.00
42835;DHT22;29335;50.526;30.458;2022-07-06T00:31:11;25.10;77.10
42835;DHT22;29335;50.526;30.458;2022-07-06T00:33:37;25.00;77.10
42835;DHT22;29335;50.526;30.458;2022-07-06T00:36:03;25.00;77.20
42835;DHT22;29335;50.526;30.458;2022-07-06T00:38:29;25.00;77.30
42835;DHT22;29335;50.526;30.458;2022-07-06T00:40:54;25.00;77.40
42835;DHT22;29335;50.526;30.458;2022-07-06T00:43:20;25.00;77.50
42835;DHT22;29335;50.526;30.458;2022-07-06T00:45:46;25.00;77.60
42835;DHT22;29335;50.526;30.458;2022-07-06T00:48:11;24.90;78.00
42835;DHT22;29335;50.526;30.458;2022-07-06T00:50:37;24.90;78.00
42835;DHT22;29335;50.526;30.458;2022-07-06T00:53:05;24.90;78.00
42835;DHT22;29335;50.526;30.458;2022-07-06T00:55:34;24.80;78.20
42835;DHT22;29335;50.526;30.458;2022-07-06T00:58:02;24.90;78.40
42835;DHT22;29335;50.526;30.458;2022-07-06T01:00:29;24.80;78.40
42835;DHT22;29335;50.526;30.458;2022-07-06T01:02:55;24.80;78.50
42835;DHT22;29335;50.526;30.458;2022-07-06T01:05:21;24.80;78.70
42835;DHT22;29335;50.526;30.458;2022-07-06T01:07:49;24.80;78.70
42835;DHT22;29335;50.526;30.458;2022-07-06T01:10:16;24.80;78.90
42835;DHT22;29335;50.526;30.458;2022-07-06T01:12:43;24.80;79.60
42835;DHT22;29335;50.526;30.458;2022-07-06T01:15:15;24.80;79.10
42835;DHT22;29335;50.526;30.458;2022-07-06T01:17:41;24.80;79.10
42835;DHT22;29335;50.526;30.458;2022-07-06T01:20:23;24.70;79.10
42835;DHT22;29335;50.526;30.458;2022-07-06T01:22:50;24.80;79.20
42835;DHT22;29335;50.526;30.458;2022-07-06T01:25:16;24.70;79.40
42835;DHT22;29335;50.526;30.458;2022-07-06T01:27:43;24.70;79.50
42835;DHT22;29335;50.526;30.458;2022-07-06T01:30:12;24.60;79.90
42835;DHT22;29335;50.526;30.458;2022-07-06T01:32:38;24.60;80.20
42835;DHT22;29335;50.526;30.458;2022-07-06T01:35:09;24.60;80.40
42835;DHT22;29335;50.526;30.458;2022-07-06T01:37:35;24.60;80.70
42835;DHT22;29335;50.526;30.458;2022-07-06T01:40:02;24.50;80.80
42835;DHT22;29335;50.526;30.458;2022-07-06T01:42:28;24.50;80.90
42835;DHT22;29335;50.526;30.458;2022-07-06T01:44:54;24.50;81.00
42835;DHT22;29335;50.526;30.458;2022-07-06T01:47:20;24.50;81.00
42835;DHT22;29335;50.526;30.458;2022-07-06T01:49:46;24.50;81.00
42835;DHT22;29335;50.526;30.458;2022-07-06T01:52:12;24.50;81.00
42835;DHT22;29335;50.526;30.458;2022-07-06T01:54:38;24.50;81.10
42835;DHT22;29335;50.526;30.458;2022-07-06T01:57:03;24.50;81.10
42835;DHT22;29335;50.526;30.458;2022-07-06T01:59:29;24.50;81.10
42835;DHT22;29335;50.526;30.458;2022-07-06T02:01:55;24.50;81.20
42835;DHT22;29335;50.526;30.458;2022-07-06T02:04:21;24.50;81.20
42835;DHT22;29335;50.526;30.458;2022-07-06T02:06:46;24.50;81.20
42835;DHT22;29335;50.526;30.458;2022-07-06T02:09:12;24.60;81.10
42835;DHT22;29335;50.526;30.458;2022-07-06T02:11:38;24.60;81.10
42835;DHT22;29335;50.526;30.458;2022-07-06T02:14:03;24.70;81.10
42835;DHT22;29335;50.526;30.458;2022-07-06T02:16:29;24.70;81.10
42835;DHT22;29335;50.526;30.458;2022-07-06T02:18:55;24.80;81.10
42835;DHT22;29335;50.526;30.458;2022-07-06T02:21:20;24.90;81.00
42835;DHT22;29335;50.526;30.458;2022-07-06T02:23:46;25.00;80.80
42835;DHT22;29335;50.526;30.458;2022-07-06T02:26:12;25.10;80.70
42835;DHT22;29335;50.526;30.458;2022-07-06T02:28:37;25.20;80.50
42835;DHT22;29335;50.526;30.458;2022-07-06T02:31:03;25.30;80.50
42835;DHT22;29335;50.526;30.458;2022-07-06T02:33:29;25.30;80.60
42835;DHT22;29335;50.526;30.458;2022-07-06T02:35:54;25.30;80.90
42835;DHT22;29335;50.526;30.458;2022-07-06T02:38:20;25.40;81.20
42835;DHT22;29335;50.526;30.458;2022-07-06T02:40:46;25.40;81.50
42835;DHT22;29335;50.526;30.458;2022-07-06T02:43:12;25.40;81.50
42835;DHT22;29335;50.526;30.458;2022-07-06T02:45:38;25.40;81.60
42835;DHT22;29335;50.526;30.458;2022-07-06T02:48:04;25.40;81.90
42835;DHT22;29335;50.526;30.458;2022-07-06T02:50:29;25.40;82.40
42835;DHT22;29335;50.526;30.458;2022-07-06T02:52:55;25.50;82.90
42835;DHT22;29335;50.526;30.458;2022-07-06T02:55:21;25.50;83.10
42835;DHT22;29335;50.526;30.458;2022-07-06T02:57:47;25.60;83.10
42835;DHT22;29335;50.526;30.458;2022-07-06T03:00:13;25.60;83.00
42835;DHT22;29335;50.526;30.458;2022-07-06T03:02:39;25.70;82.90
42835;DHT22;29335;50.526;30.458;2022-07-06T03:05:05;25.80;82.80
42835;DHT22;29335;50.526;30.458;2022-07-06T03:07:31;25.80;82.60
42835;DHT22;29335;50.526;30.458;2022-07-06T03:09:56;25.90;82.40
42835;DHT22;29335;50.526;30.458;2022-07-06T03:12:22;26.00;82.40
42835;DHT22;29335;50.526;30.458;2022-07-06T03:14:48;25.90;82.30
42835;DHT22;29335;50.526;30.458;2022-07-06T03:17:13;26.10;82.30
42835;DHT22;29335;50.526;30.458;2022-07-06T03:19:39;26.30;82.20
42835;DHT22;29335;50.526;30.458;2022-07-06T03:22:05;26.40;81.90
42835;DHT22;29335;50.526;30.458;2022-07-06T03:24:30;26.50;81.60
42835;DHT22;29335;50.526;30.458;2022-07-06T03:26:56;26.70;81.10
42835;DHT22;29335;50.526;30.458;2022-07-06T03:29:22;26.90;80.70
42835;DHT22;29335;50.526;30.458;2022-07-06T03:31:47;26.90;80.30
42835;DHT22;29335;50.526;30.458;2022-07-06T03:34:13;27.00;80.00
42835;DHT22;29335;50.526;30.458;2022-07-06T03:36:39;27.10;79.70
42835;DHT22;29335;50.526;30.458;2022-07-06T03:39:05;27.30;79.50
42835;DHT22;29335;50.526;30.458;2022-07-06T03:41:30;27.40;79.00
42835;DHT22;29335;50.526;30.458;2022-07-06T03:43:56;27.60;78.80
42835;DHT22;29335;50.526;30.458;2022-07-06T03:46:22;27.70;78.70
42835;DHT22;29335;50.526;30.458;2022-07-06T03:48:47;27.90;78.20
42835;DHT22;29335;50.526;30.458;2022-07-06T03:51:13;28.00;77.60
42835;DHT22;29335;50.526;30.458;2022-07-06T03:53:39;28.10;77.40
42835;DHT22;29335;50.526;30.458;2022-07-06T03:56:04;28.30;76.90
42835;DHT22;29335;50.526;30.458;2022-07-06T03:58:48;28.40;76.50
42835;DHT22;29335;50.526;30.458;2022-07-06T04:01:14;28.40;75.80
42835;DHT22;29335;50.526;30.458;2022-07-06T04:03:40;28.60;75.90
42835;DHT22;29335;50.526;30.458;2022-07-06T04:06:06;28.70;75.40
42835;DHT22;29335;50.526;30.458;2022-07-06T04:08:31;28.80;75.70
42835;DHT22;29335;50.526;30.458;2022-07-06T04:10:58;28.80;74.50
42835;DHT22;29335;50.526;30.458;2022-07-06T04:13:24;28.80;74.40
42835;DHT22;29335;50.526;30.458;2022-07-06T04:15:51;28.90;74.30
42835;DHT22;29335;50.526;30.458;2022-07-06T04:18:17;29.00;73.40
42835;DHT22;29335;50.526;30.458;2022-07-06T04:20:42;29.10;72.40
42835;DHT22;29335;50.526;30.458;2022-07-06T04:23:08;29.20;71.80
42835;DHT22;29335;50.526;30.458;2022-07-06T04:25:34;29.30;72.20
42835;DHT22;29335;50.526;30.458;2022-07-06T04:28:00;29.30;69.90
42835;DHT22;29335;50.526;30.458;2022-07-06T04:30:25;29.40;69.20
42835;DHT22;29335;50.526;30.458;2022-07-06T04:32:51;29.60;67.50
42835;DHT22;29335;50.526;30.458;2022-07-06T04:35:17;29.80;66.50
42835;DHT22;29335;50.526;30.458;2022-07-06T04:37:42;30.00;65.70
42835;DHT22;29335;50.526;30.458;2022-07-06T04:40:08;30.30;65.00
42835;DHT22;29335;50.526;30.458;2022-07-06T04:42:34;30.40;64.40
42835;DHT22;29335;50.526;30.458;2022-07-06T04:45:00;30.60;64.00
42835;DHT22;29335;50.526;30.458;2022-07-06T04:47:25;30.50;63.50
42835;DHT22;29335;50.526;30.458;2022-07-06T04:49:51;30.50;63.40
42835;DHT22;29335;50.526;30.458;2022-07-06T04:52:17;30.60;63.10
42835;DHT22;29335;50.526;30.458;2022-07-06T04:54:42;30.60;63.10
42835;DHT22;29335;50.526;30.458;2022-07-06T04:57:08;30.70;62.90
42835;DHT22;29335;50.526;30.458;2022-07-06T04:59:34;30.60;62.70
42835;DHT22;29335;50.526;30.458;2022-07-06T05:01:59;30.40;62.70
42835;DHT22;29335;50.526;30.458;2022-07-06T05:04:25;30.30;62.90
42835;DHT22;29335;50.526;30.458;2022-07-06T05:06:51;30.40;63.10
42835;DHT22;29335;50.526;30.458;2022-07-06T05:09:16;30.70;62.90
42835;DHT22;29335;50.526;30.458;2022-07-06T05:11:42;30.90;63.00
42835;DHT22;29335;50.526;30.458;2022-07-06T05:14:08;31.20;62.30
42835;DHT22;29335;50.526;30.458;2022-07-06T05:16:33;31.40;61.80
42835;DHT22;29335;50.526;30.458;2022-07-06T05:18:59;31.60;61.60
42835;DHT22;29335;50.526;30.458;2022-07-06T05:21:24;31.90;61.30
42835;DHT22;29335;50.526;30.458;2022-07-06T05:23:50;32.20;61.50
42835;DHT22;29335;50.526;30.458;2022-07-06T05:26:16;32.50;60.50
42835;DHT22;29335;50.526;30.458;2022-07-06T05:28:42;32.30;60.40
42835;DHT22;29335;50.526;30.458;2022-07-06T05:31:08;32.00;59.80
42835;DHT22;29335;50.526;30.458;2022-07-06T05:33:33;31.70;60.00
42835;DHT22;29335;50.526;30.458;2022-07-06T05:35:59;31.50;60.20
42835;DHT22;29335;50.526;30.458;2022-07-06T05:38:25;31.50;60.20
42835;DHT22;29335;50.526;30.458;2022-07-06T05:40:51;31.60;60.60
42835;DHT22;29335;50.526;30.458;2022-07-06T05:43:17;31.80;60.60
42835;DHT22;29335;50.526;30.458;2022-07-06T05:45:43;32.10;60.20
42835;DHT22;29335;50.526;30.458;2022-07-06T05:48:08;32.40;59.30
42835;DHT22;29335;50.526;30.458;2022-07-06T05:50:53;32.50;58.80
42835;DHT22;29335;50.526;30.458;2022-07-06T05:53:18;32.50;58.60
42835;DHT22;29335;50.526;30.458;2022-07-06T05:55:45;32.60;58.70
42835;DHT22;29335;50.526;30.458;2022-07-06T05:58:10;32.80;58.10
42835;DHT22;29335;50.526;30.458;2022-07-06T06:00:36;32.70;57.50
42835;DHT22;29335;50.526;30.458;2022-07-06T06:03:02;32.50;58.00
42835;DHT22;29335;50.526;30.458;2022-07-06T06:05:27;32.30;58.50
42835;DHT22;29335;50.526;30.458;2022-07-06T06:07:53;32.50;58.40
42835;DHT22;29335;50.526;30.458;2022-07-06T06:10:20;32.60;57.70
42835;DHT22;29335;50.526;30.458;2022-07-06T06:12:47;32.60;57.20
42835;DHT22;29335;50.526;30.458;2022-07-06T06:15:12;32.50;57.60
42835;DHT22;29335;50.526;30.458;2022-07-06T06:17:39;32.60;57.40
42835;DHT22;29335;50.526;30.458;2022-07-06T06:20:06;32.70;57.00
42835;DHT22;29335;50.526;30.458;2022-07-06T06:22:54;32.70;57.40
42835;DHT22;29335;50.526;30.458;2022-07-06T06:25:29;32.90;57.40
42835;DHT22;29335;50.526;30.458;2022-07-06T06:27:55;32.70;56.80
42835;DHT22;29335;50.526;30.458;2022-07-06T06:30:20;32.70;57.00
42835;DHT22;29335;50.526;30.458;2022-07-06T06:32:46;32.50;57.00
42835;DHT22;29335;50.526;30.458;2022-07-06T06:35:12;32.60;57.10
42835;DHT22;29335;50.526;30.458;2022-07-06T06:37:37;32.70;57.00
42835;DHT22;29335;50.526;30.458;2022-07-06T06:40:04;32.70;56.80
42835;DHT22;29335;50.526;30.458;2022-07-06T06:42:31;32.80;56.50
42835;DHT22;29335;50.526;30.458;2022-07-06T06:44:57;32.60;56.60
42835;DHT22;29335;50.526;30.458;2022-07-06T06:47:23;32.30;56.80
42835;DHT22;29335;50.526;30.458;2022-07-06T06:49:48;32.00;57.30
42835;DHT22;29335;50.526;30.458;2022-07-06T06:52:14;31.90;57.30
42835;DHT22;29335;50.526;30.458;2022-07-06T06:54:40;31.80;57.40
42835;DHT22;29335;50.526;30.458;2022-07-06T06:57:06;31.70;57.60
42835;DHT22;29335;50.526;30.458;2022-07-06T06:59:31;31.70;57.60
42835;DHT22;29335;50.526;30.458;2022-07-06T07:01:57;31.70;57.80
42835;DHT22;29335;50.526;30.458;2022-07-06T07:04:23;31.60;57.70
42835;DHT22;29335;50.526;30.458;2022-07-06T07:06:48;31.60;57.80
42835;DHT22;29335;50.526;30.458;2022-07-06T07:09:14;31.70;57.90
42835;DHT22;29335;50.526;30.458;2022-07-06T07:11:40;31.70;57.90
42835;DHT22;29335;50.526;30.458;2022-07-06T07:14:05;31.80;57.70
42835;DHT22;29335;50.526;30.458;2022-07-06T07:16:31;31.90;57.60
42835;DHT22;29335;50.526;30.458;2022-07-06T07:18:56;31.90;57.50
42835;DHT22;29335;50.526;30.458;2022-07-06T07:21:22;32.00;57.60
42835;DHT22;29335;50.526;30.458;2022-07-06T07:23:48;32.00;57.00
42835;DHT22;29335;50.526;30.458;2022-07-06T07:26:15;32.10;56.90
42835;DHT22;29335;50.526;30.458;2022-07-06T07:28:41;32.00;56.50
42835;DHT22;29335;50.526;30.458;2022-07-06T07:31:06;32.00;56.40
42835;DHT22;29335;50.526;30.458;2022-07-06T07:33:32;31.90;56.60
42835;DHT22;29335;50.526;30.458;2022-07-06T07:35:58;32.10;56.60
42835;DHT22;29335;50.526;30.458;2022-07-06T07:38:23;32.00;56.60
42835;DHT22;29335;50.526;30.458;2022-07-06T07:40:49;32.00;56.70
42835;DHT22;29335;50.526;30.458;2022-07-06T07:43:15;31.90;56.90
42835;DHT22;29335;50.526;30.458;2022-07-06T07:45:40;32.00;57.00
42835;DHT22;29335;50.526;30.458;2022-07-06T07:48:06;31.90;57.20
42835;DHT22;29335;50.526;30.458;2022-07-06T07:50:31;31.90;57.40
42835;DHT22;29335;50.526;30.458;2022-07-06T07:52:57;32.10;57.60
42835;DHT22;29335;50.526;30.458;2022-07-06T07:55:23;32.00;57.50
42835;DHT22;29335;50.526;30.458;2022-07-06T07:57:48;32.10;57.60
42835;DHT22;29335;50.526;30.458;2022-07-06T08:00:14;32.10;57.70
42835;DHT22;29335;50.526;30.458;2022-07-06T08:02:40;32.10;57.90
42835;DHT22;29335;50.526;30.458;2022-07-06T08:05:06;32.10;57.80
42835;DHT22;29335;50.526;30.458;2022-07-06T08:07:32;32.10;57.90
42835;DHT22;29335;50.526;30.458;2022-07-06T08:09:57;32.10;58.10
42835;DHT22;29335;50.526;30.458;2022-07-06T08:12:23;32.10;58.50
42835;DHT22;29335;50.526;30.458;2022-07-06T08:14:49;32.20;58.90
42835;DHT22;29335;50.526;30.458;2022-07-06T08:17:14;32.10;59.10
42835;DHT22;29335;50.526;30.458;2022-07-06T08:19:40;32.40;58.80
42835;DHT22;29335;50.526;30.458;2022-07-06T08:22:05;32.30;58.50
42835;DHT22;29335;50.526;30.458;2022-07-06T08:24:35;32.30;58.70
42835;DHT22;29335;50.526;30.458;2022-07-06T08:27:01;32.30;58.80
42835;DHT22;29335;50.526;30.458;2022-07-06T08:29:31;32.40;58.80
42835;DHT22;29335;50.526;30.458;2022-07-06T08:31:56;32.40;58.50
42835;DHT22;29335;50.526;30.458;2022-07-06T08:34:23;32.70;58.30
42835;DHT22;29335;50.526;30.458;2022-07-06T08:36:49;32.60;58.50
42835;DHT22;29335;50.526;30.458;2022-07-06T08:39:14;32.60;58.70
42835;DHT22;29335;50.526;30.458;2022-07-06T08:41:41;32.60;58.50
42835;DHT22;29335;50.526;30.458;2022-07-06T08:44:08;32.60;58.00
42835;DHT22;29335;50.526;30.458;2022-07-06T08:46:37;32.60;58.00
42835;DHT22;29335;50.526;30.458;2022-07-06T08:49:04;32.70;58.40
42835;DHT22;29335;50.526;30.458;2022-07-06T08:51:30;32.70;58.30
42835;DHT22;29335;50.526;30.458;2022-07-06T08:53:56;32.70;57.90
42835;DHT22;29335;50.526;30.458;2022-07-06T08:56:22;32.80;57.90
42835;DHT22;29335;50.526;30.458;2022-07-06T08:58:48;32.80;58.60
42835;DHT22;29335;50.526;30.458;2022-07-06T09:01:14;33.00;57.80
42835;DHT22;29335;50.526;30.458;2022-07-06T09:03:41;33.00;57.90
42835;DHT22;29335;50.526;30.458;2022-07-06T09:06:07;32.90;58.00
42835;DHT22;29335;50.526;30.458;2022-07-06T09:08:33;32.90;58.10
42835;DHT22;29335;50.526;30.458;2022-07-06T09:11:00;33.00;57.30
42835;DHT22;29335;50.526;30.458;2022-07-06T09:13:26;32.90;57.30
42835;DHT22;29335;50.526;30.458;2022-07-06T09:15:51;33.00;57.00
42835;DHT22;29335;50.526;30.458;2022-07-06T09:18:17;32.90;57.20
42835;DHT22;29335;50.526;30.458;2022-07-06T09:20:43;32.90;57.00
42835;DHT22;29335;50.526;30.458;2022-07-06T09:23:08;33.00;56.90
42835;DHT22;29335;50.526;30.458;2022-07-06T09:25:34;33.10;56.80
42835;DHT22;29335;50.526;30.458;2022-07-06T09:28:01;33.30;56.80
42835;DHT22;29335;50.526;30.458;2022-07-06T09:30:28;33.30;56.10
42835;DHT22;29335;50.526;30.458;2022-07-06T09:32:55;33.30;55.90
42835;DHT22;29335;50.526;30.458;2022-07-06T09:35:31;33.30;56.00
42835;DHT22;29335;50.526;30.458;2022-07-06T09:40:38;33.30;55.80
42835;DHT22;29335;50.526;30.458;2022-07-06T09:43:16;33.50;55.30
42835;DHT22;29335;50.526;30.458;2022-07-06T09:45:51;33.60;55.30
42835;DHT22;29335;50.526;30.458;2022-07-06T09:48:19;33.60;55.10
42835;DHT22;29335;50.526;30.458;2022-07-06T09:50:52;33.30;54.90
42835;DHT22;29335;50.526;30.458;2022-07-06T09:53:19;33.30;55.00
42835;DHT22;29335;50.526;30.458;2022-07-06T09:55:46;33.50;54.90
42835;DHT22;29335;50.526;30.458;2022-07-06T09:58:13;33.50;54.70
42835;DHT22;29335;50.526;30.458;2022-07-06T10:00:40;33.60;54.60
42835;DHT22;29335;50.526;30.458;2022-07-06T10:03:07;33.70;54.00
42835;DHT22;29335;50.526;30.458;2022-07-06T10:05:37;33.80;54.10
42835;DHT22;29335;50.526;30.458;2022-07-06T10:08:03;33.80;53.90
42835;DHT22;29335;50.526;30.458;2022-07-06T10:10:32;33.80;53.70
42835;DHT22;29335;50.526;30.458;2022-07-06T10:12:59;33.90;53.30
42835;DHT22;29335;50.526;30.458;2022-07-06T10:15:26;34.10;53.40
42835;DHT22;29335;50.526;30.458;2022-07-06T10:17:53;34.20;53.30
42835;DHT22;29335;50.526;30.458;2022-07-06T10:20:20;34.30;53.20
42835;DHT22;29335;50.526;30.458;2022-07-06T10:22:49;34.40;52.90
42835;DHT22;29335;50.526;30.458;2022-07-06T10:25:16;34.60;52.40
42835;DHT22;29335;50.526;30.458;2022-07-06T10:27:43;34.50;52.00
42835;DHT22;29335;50.526;30.458;2022-07-06T10:30:10;34.40;51.40
42835;DHT22;29335;50.526;30.458;2022-07-06T10:32:38;34.50;49.60
42835;DHT22;29335;50.526;30.458;2022-07-06T10:35:05;34.40;49.90
42835;DHT22;29335;50.526;30.458;2022-07-06T10:37:31;34.40;50.40
42835;DHT22;29335;50.526;30.458;2022-07-06T10:39:59;34.40;50.80
42835;DHT22;29335;50.526;30.458;2022-07-06T10:45:12;34.60;51.20
42835;DHT22;29335;50.526;30.458;2022-07-06T10:47:40;34.60;50.50
42835;DHT22;29335;50.526;30.458;2022-07-06T10:50:06;34.60;51.10
42835;DHT22;29335;50.526;30.458;2022-07-06T10:52:48;34.80;50.10
42835;DHT22;29335;50.526;30.458;2022-07-06T10:55:36;34.70;49.90
42835;DHT22;29335;50.526;30.458;2022-07-06T10:58:02;34.60;50.30
42835;DHT22;29335;50.526;30.458;2022-07-06T11:00:47;34.60;49.90
42835;DHT22;29335;50.526;30.458;2022-07-06T11:14:02;34.90;50.10
42835;DHT22;29335;50.526;30.458;2022-07-06T11:16:31;34.60;50.20
42835;DHT22;29335;50.526;30.458;2022-07-06T11:24:05;34.70;50.20
42835;DHT22;29335;50.526;30.458;2022-07-06T11:26:32;34.80;50.20
42835;DHT22;29335;50.526;30.458;2022-07-06T11:28:59;34.80;50.30
42835;DHT22;29335;50.526;30.458;2022-07-06T11:31:27;34.90;50.50
42835;DHT22;29335;50.526;30.458;2022-07-06T11:33:53;35.20;50.20
42835;DHT22;29335;50.526;30.458;2022-07-06T11:36:21;34.90;49.90
42835;DHT22;29335;50.526;30.458;2022-07-06T11:38:49;34.90;49.90
42835;DHT22;29335;50.526;30.458;2022-07-06T11:41:16;35.00;49.70
42835;DHT22;29335;50.526;30.458;2022-07-06T11:43:44;35.00;49.50
42835;DHT22;29335;50.526;30.458;2022-07-06T11:48:51;34.90;50.10
42835;DHT22;29335;50.526;30.458;2022-07-06T11:51:17;34.70;50.20
42835;DHT22;29335;50.526;30.458;2022-07-06T11:53:45;34.60;50.30
42835;DHT22;29335;50.526;30.458;2022-07-06T11:56:11;34.40;50.30
42835;DHT22;29335;50.526;30.458;2022-07-06T11:58:39;34.40;50.40
42835;DHT22;29335;50.526;30.458;2022-07-06T12:01:09;34.40;50.30
42835;DHT22;29335;50.526;30.458;2022-07-06T12:03:36;34.50;50.00
42835;DHT22;29335;50.526;30.458;2022-07-06T12:06:06;34.50;50.20
42835;DHT22;29335;50.526;30.458;2022-07-06T12:08:32;34.50;50.30
42835;DHT22;29335;50.526;30.458;2022-07-06T12:11:05;34.50;50.20
42835;DHT22;29335;50.526;30.458;2022-07-06T12:13:36;34.50;50.60
42835;DHT22;29335;50.526;30.458;2022-07-06T12:16:14;34.50;50.90
42835;DHT22;29335;50.526;30.458;2022-07-06T12:18:42;34.60;51.00
42835;DHT22;29335;50.526;30.458;2022-07-06T12:21:10;34.50;50.70
42835;DHT22;29335;50.526;30.458;2022-07-06T12:23:49;34.60;50.40
42835;DHT22;29335;50.526;30.458;2022-07-06T12:26:17;34.50;50.40
42835;DHT22;29335;50.526;30.458;2022-07-06T12:28:43;34.40;50.60
42835;DHT22;29335;50.526;30.458;2022-07-06T12:31:10;34.30;50.60
42835;DHT22;29335;50.526;30.458;2022-07-06T12:33:36;34.30;50.70
42835;DHT22;29335;50.526;30.458;2022-07-06T12:36:13;34.40;50.50
42835;DHT22;29335;50.526;30.458;2022-07-06T12:38:48;34.40;50.40
42835;DHT22;29335;50.526;30.458;2022-07-06T12:41:28;34.30;50.50
42835;DHT22;29335;50.526;30.458;2022-07-06T12:44:06;34.20;50.80
42835;DHT22;29335;50.526;30.458;2022-07-06T12:46:36;34.10;51.60
42835;DHT22;29335;50.526;30.458;2022-07-06T12:49:17;33.90;53.00
42835;DHT22;29335;50.526;30.458;2022-07-06T12:54:16;33.30;54.90
42835;DHT22;29335;50.526;30.458;2022-07-06T12:56:59;33.00;55.70
42835;DHT22;29335;50.526;30.458;2022-07-06T12:59:26;32.70;56.60
42835;DHT22;29335;50.526;30.458;2022-07-06T13:01:53;32.50;57.90
42835;DHT22;29335;50.526;30.458;2022-07-06T13:04:23;32.30;59.60
42835;DHT22;29335;50.526;30.458;2022-07-06T13:06:49;32.00;60.00
42835;DHT22;29335;50.526;30.458;2022-07-06T13:09:14;31.30;61.10
42835;DHT22;29335;50.526;30.458;2022-07-06T13:11:42;31.20;61.20
42835;DHT22;29335;50.526;30.458;2022-07-06T13:14:07;31.10;62.10
42835;DHT22;29335;50.526;30.458;2022-07-06T13:16:35;30.90;62.50
42835;DHT22;29335;50.526;30.458;2022-07-06T13:19:01;30.60;63.70
42835;DHT22;29335;50.526;30.458;2022-07-06T13:21:27;30.30;64.60
42835;DHT22;29335;50.526;30.458;2022-07-06T13:23:53;30.00;65.40
42835;DHT22;29335;50.526;30.458;2022-07-06T13:26:19;29.80;66.30
42835;DHT22;29335;50.526;30.458;2022-07-06T13:28:44;29.10;67.50
42835;DHT22;29335;50.526;30.458;2022-07-06T13:31:11;29.00;68.00
42835;DHT22;29335;50.526;30.458;2022-07-06T13:33:37;28.90;68.30
42835;DHT22;29335;50.526;30.458;2022-07-06T13:36:03;28.70;69.20
42835;DHT22;29335;50.526;30.458;2022-07-06T13:38:29;28.60;71.50
42835;DHT22;29335;50.526;30.458;2022-07-06T13:40:55;28.30;73.60
42835;DHT22;29335;50.526;30.458;2022-07-06T13:43:20;27.80;76.30
42835;DHT22;29335;50.526;30.458;2022-07-06T13:45:47;27.40;79.20
42835;DHT22;29335;50.526;30.458;2022-07-06T13:48:12;27.00;80.80
42835;DHT22;29335;50.526;30.458;2022-07-06T13:50:38;26.90;80.70
42835;DHT22;29335;50.526;30.458;2022-07-06T13:53:04;26.70;79.50
42835;DHT22;29335;50.526;30.458;2022-07-06T13:55:30;26.60;80.30
42835;DHT22;29335;50.526;30.458;2022-07-06T13:57:56;26.80;79.60
42835;DHT22;29335;50.526;30.458;2022-07-06T14:00:22;26.10;78.40
42835;DHT22;29335;50.526;30.458;2022-07-06T14:02:48;26.00;82.80
42835;DHT22;29335;50.526;30.458;2022-07-06T14:05:13;25.80;84.60
42835;DHT22;29335;50.526;30.458;2022-07-06T14:07:39;25.70;86.80
42835;DHT22;29335;50.526;30.458;2022-07-06T14:10:05;25.40;90.00
42835;DHT22;29335;50.526;30.458;2022-07-06T14:12:31;25.10;90.40
42835;DHT22;29335;50.526;30.458;2022-07-06T14:14:57;25.00;90.50
42835;DHT22;29335;50.526;30.458;2022-07-06T14:17:22;24.80;90.50
42835;DHT22;29335;50.526;30.458;2022-07-06T14:19:49;24.80;90.30
42835;DHT22;29335;50.526;30.458;2022-07-06T14:22:14;24.80;90.30
42835;DHT22;29335;50.526;30.458;2022-07-06T14:24:40;24.90;89.00
42835;DHT22;29335;50.526;30.458;2022-07-06T14:27:06;25.70;90.10
42835;DHT22;29335;50.526;30.458;2022-07-06T14:29:32;24.80;90.40
42835;DHT22;29335;50.526;30.458;2022-07-06T14:31:57;24.90;90.10
42835;DHT22;29335;50.526;30.458;2022-07-06T14:34:23;25.00;90.00
42835;DHT22;29335;50.526;30.458;2022-07-06T14:36:50;24.90;90.60
42835;DHT22;29335;50.526;30.458;2022-07-06T14:39:15;24.70;91.70
42835;DHT22;29335;50.526;30.458;2022-07-06T14:41:41;24.60;92.00
42835;DHT22;29335;50.526;30.458;2022-07-06T14:44:06;24.60;92.60
42835;DHT22;29335;50.526;30.458;2022-07-06T14:46:32;24.70;93.30
42835;DHT22;29335;50.526;30.458;2022-07-06T14:49:00;24.60;93.70
42835;DHT22;29335;50.526;30.458;2022-07-06T14:51:26;24.60;93.80
42835;DHT22;29335;50.526;30.458;2022-07-06T14:53:51;24.60;93.40
42835;DHT22;29335;50.526;30.458;2022-07-06T14:56:17;24.70;93.40
42835;DHT22;29335;50.526;30.458;2022-07-06T14:58:43;24.70;93.60
42835;DHT22;29335;50.526;30.458;2022-07-06T15:01:09;24.80;94.00
42835;DHT22;29335;50.526;30.458;2022-07-06T15:03:34;24.70;94.10
42835;DHT22;29335;50.526;30.458;2022-07-06T15:06:00;24.80;94.30
42835;DHT22;29335;50.526;30.458;2022-07-06T15:08:25;24.70;94.80
42835;DHT22;29335;50.526;30.458;2022-07-06T15:10:51;24.80;94.20
42835;DHT22;29335;50.526;30.458;2022-07-06T15:13:17;24.80;94.50
42835;DHT22;29335;50.526;30.458;2022-07-06T15:15:43;24.80;94.80
42835;DHT22;29335;50.526;30.458;2022-07-06T15:18:09;24.80;95.30
42835;DHT22;29335;50.526;30.458;2022-07-06T15:20:34;24.80;94.90
42835;DHT22;29335;50.526;30.458;2022-07-06T15:23:00;24.90;95.80
42835;DHT22;29335;50.526;30.458;2022-07-06T15:25:26;24.70;97.60
42835;DHT22;29335;50.526;30.458;2022-07-06T15:27:51;24.80;98.00
42835;DHT22;29335;50.526;30.458;2022-07-06T15:30:18;24.80;98.30
42835;DHT22;29335;50.526;30.458;2022-07-06T15:32:43;24.80;98.90
42835;DHT22;29335;50.526;30.458;2022-07-06T15:35:09;24.90;98.70
42835;DHT22;29335;50.526;30.458;2022-07-06T15:37:35;24.70;98.90
42835;DHT22;29335;50.526;30.458;2022-07-06T15:40:03;24.60;98.80